Time;durP1;ratioP1;P1;durP2;ratioP2;P2;SDS_P1;SDS_P2;PMS_P1;PMS_P2;Temp;Humidity;BMP_temperature;BMP_pressure;BME280_temperature;BME280_humidity;BME280_pressure;Samples;Min_cycle;Max_cycle;Signal;HPM_P1;HPM_P2
2023/05/23 00:02:08;;;;;;;21.92;9.57;;;;;;;;;;5024149;28;20041;-79
2023/05/23 00:04:37;;;;;;;19.75;8.68;;;;;;;;;;5023479;28;20045;-79
2023/05/23 00:07:03;;;;;;;17.80;9.20;;;;;;;;;;5023100;28;20041;-78
2023/05/23 00:09:29;;;;;;;21.42;8.68;;;;;;;;;;5021331;28;20049;-78
2023/05/23 00:11:55;;;;;;;19.30;9.05;;;;;;;;;;5018442;28;20148;-79
2023/05/23 00:14:22;;;;;;;18.00;8.82;;;;;;;;;;5023366;28;20131;-79
2023/05/23 00:16:48;;;;;;;17.10;7.93;;;;;;;;;;5021245;28;20041;-79
2023/05/23 00:19:15;;;;;;;16.73;7.00;;;;;;;;;;5016862;28;20099;-78
2023/05/23 00:21:47;;;;;;;19.92;8.68;;;;;;;;;;5021517;28;20068;-78
2023/05/23 00:24:17;;;;;;;17.30;7.45;;;;;;;;;;5022362;28;20053;-77
2023/05/23 00:26:44;;;;;;;19.15;8.82;;;;;;;;;;5019699;28;20401;-78
2023/05/23 00:29:15;;;;;;;18.55;7.90;;;;;;;;;;5022317;28;20049;-78
2023/05/23 00:31:47;;;;;;;18.15;8.05;;;;;;;;;;5025113;28;20433;-77
2023/05/23 00:34:14;;;;;;;23.85;8.70;;;;;;;;;;5032773;28;20084;-78
2023/05/23 00:36:42;;;;;;;14.75;7.70;;;;;;;;;;5028881;28;20115;-78
2023/05/23 00:39:08;;;;;;;17.00;8.02;;;;;;;;;;5016591;28;20152;-78
2023/05/23 00:41:37;;;;;;;16.90;8.30;;;;;;;;;;5024872;28;20042;-77
2023/05/23 00:44:04;;;;;;;19.63;8.05;;;;;;;;;;5026267;28;20042;-77
2023/05/23 00:46:31;;;;;;;17.70;7.82;;;;;;;;;;5029018;28;22385;-78
2023/05/23 00:48:57;;;;;;;17.00;8.77;;;;;;;;;;5028876;28;20054;-77
2023/05/23 00:51:23;;;;;;;20.75;8.32;;;;;;;;;;5031162;28;20389;-77
2023/05/23 00:53:49;;;;;;;17.45;8.70;;;;;;;;;;5021377;28;20053;-77
2023/05/23 00:56:16;;;;;;;17.83;8.55;;;;;;;;;;5030140;28;20104;-77
2023/05/23 00:58:42;;;;;;;16.98;8.45;;;;;;;;;;5028298;28;20042;-77
2023/05/23 01:01:08;;;;;;;19.60;8.52;;;;;;;;;;5021759;28;20045;-77
2023/05/23 01:03:35;;;;;;;18.55;7.95;;;;;;;;;;5013608;28;20042;-77
2023/05/23 01:06:01;;;;;;;20.70;9.23;;;;;;;;;;5017526;28;20049;-77
2023/05/23 01:08:28;;;;;;;17.65;9.05;;;;;;;;;;5018779;28;20049;-77
2023/05/23 01:10:56;;;;;;;18.23;8.25;;;;;;;;;;5018658;28;20064;-78
2023/05/23 01:13:22;;;;;;;17.15;7.60;;;;;;;;;;5018776;28;20060;-78
2023/05/23 01:15:55;;;;;;;17.50;7.60;;;;;;;;;;5018107;28;20425;-79
2023/05/23 01:18:29;;;;;;;21.25;9.07;;;;;;;;;;5020216;28;20041;-77
2023/05/23 01:20:56;;;;;;;19.63;8.48;;;;;;;;;;5020615;28;20037;-78
2023/05/23 01:23:25;;;;;;;19.83;9.00;;;;;;;;;;5020423;28;20115;-77
2023/05/23 01:26:13;;;;;;;16.75;8.35;;;;;;;;;;5021002;28;20068;-77
2023/05/23 01:28:46;;;;;;;17.98;7.93;;;;;;;;;;5020243;28;20150;-78
2023/05/23 01:31:12;;;;;;;32.10;8.98;;;;;;;;;;5017351;28;20053;-77
2023/05/23 01:33:40;;;;;;;17.17;7.93;;;;;;;;;;5019926;28;20460;-79
2023/05/23 01:36:06;;;;;;;22.73;8.15;;;;;;;;;;5023034;28;20038;-77
2023/05/23 01:38:32;;;;;;;17.30;8.20;;;;;;;;;;5025256;28;20466;-77
2023/05/23 01:40:58;;;;;;;20.08;8.30;;;;;;;;;;5023687;28;20148;-78
2023/05/23 01:43:25;;;;;;;14.93;7.82;;;;;;;;;;5029571;28;20053;-78
2023/05/23 01:45:53;;;;;;;16.40;7.03;;;;;;;;;;5023028;28;20057;-78
2023/05/23 01:48:20;;;;;;;16.35;7.72;;;;;;;;;;5029573;28;20047;-79
2023/05/23 01:50:46;;;;;;;17.92;8.20;;;;;;;;;;5026338;28;20493;-77
2023/05/23 01:53:17;;;;;;;14.25;6.60;;;;;;;;;;5028145;28;20555;-77
2023/05/23 01:55:43;;;;;;;16.48;7.40;;;;;;;;;;5026358;28;20048;-77
2023/05/23 01:58:09;;;;;;;17.98;7.25;;;;;;;;;;5029814;28;20049;-77
2023/05/23 02:00:36;;;;;;;22.88;8.40;;;;;;;;;;5027411;28;20156;-78
2023/05/23 02:03:02;;;;;;;18.42;6.65;;;;;;;;;;5019756;28;20049;-78
2023/05/23 02:05:29;;;;;;;14.65;6.68;;;;;;;;;;5028450;28;20468;-78
2023/05/23 02:07:55;;;;;;;18.95;6.60;;;;;;;;;;5019929;28;20049;-77
2023/05/23 02:10:22;;;;;;;12.45;5.88;;;;;;;;;;5020565;28;20041;-77
2023/05/23 02:12:48;;;;;;;16.20;6.50;;;;;;;;;;5023489;28;20033;-77
2023/05/23 02:15:15;;;;;;;13.38;5.25;;;;;;;;;;5019691;28;20405;-77
2023/05/23 02:17:41;;;;;;;13.48;5.57;;;;;;;;;;5018377;28;20099;-77
2023/05/23 02:20:08;;;;;;;17.50;5.93;;;;;;;;;;5015407;28;20053;-77
2023/05/23 02:22:35;;;;;;;15.02;5.38;;;;;;;;;;5020046;28;20116;-78
2023/05/23 02:25:01;;;;;;;14.70;5.55;;;;;;;;;;5019871;28;20045;-78
2023/05/23 02:27:27;;;;;;;15.40;5.95;;;;;;;;;;5019538;28;20053;-78
2023/05/23 02:29:53;;;;;;;15.73;5.28;;;;;;;;;;5021015;28;20076;-77
2023/05/23 02:32:19;;;;;;;12.38;5.38;;;;;;;;;;5018363;28;20045;-77
2023/05/23 02:34:49;;;;;;;15.50;4.85;;;;;;;;;;5021703;28;20492;-78
2023/05/23 02:37:15;;;;;;;14.75;4.75;;;;;;;;;;5021411;28;20050;-77
2023/05/23 02:39:41;;;;;;;14.82;5.25;;;;;;;;;;5031698;28;20045;-78
2023/05/23 02:42:07;;;;;;;14.52;5.47;;;;;;;;;;5023691;28;20041;-77
2023/05/23 02:44:33;;;;;;;10.57;5.00;;;;;;;;;;5042751;28;20049;-77
2023/05/23 02:46:59;;;;;;;12.93;4.80;;;;;;;;;;5026591;28;20088;-78
2023/05/23 02:49:25;;;;;;;10.88;4.63;;;;;;;;;;5024621;28;20052;-78
2023/05/23 02:51:51;;;;;;;12.50;5.15;;;;;;;;;;5030351;28;20477;-78
2023/05/23 02:54:17;;;;;;;14.82;5.35;;;;;;;;;;5024035;28;20056;-78
2023/05/23 02:56:44;;;;;;;11.10;4.50;;;;;;;;;;5028351;28;20034;-77
2023/05/23 02:59:11;;;;;;;10.82;4.85;;;;;;;;;;5030727;28;20102;-77
2023/05/23 03:01:37;;;;;;;11.68;5.07;;;;;;;;;;5021401;28;20049;-78
2023/05/23 03:04:03;;;;;;;12.43;4.55;;;;;;;;;;5023749;28;20049;-78
2023/05/23 03:06:31;;;;;;;9.85;4.43;;;;;;;;;;5042731;28;20069;-77
2023/05/23 03:08:57;;;;;;;10.60;5.05;;;;;;;;;;5020685;28;20046;-78
2023/05/23 03:11:23;;;;;;;10.73;4.63;;;;;;;;;;5013612;28;20057;-77
2023/05/23 03:13:49;;;;;;;14.52;5.18;;;;;;;;;;5023745;28;20045;-77
2023/05/23 03:16:15;;;;;;;10.63;4.85;;;;;;;;;;5021563;28;20041;-78
2023/05/23 03:18:41;;;;;;;11.93;4.63;;;;;;;;;;5022607;28;20044;-78
2023/05/23 03:21:08;;;;;;;11.02;4.70;;;;;;;;;;5020441;28;20042;-78
2023/05/23 03:23:35;;;;;;;11.70;5.10;;;;;;;;;;5023035;28;20050;-78
2023/05/23 03:26:02;;;;;;;12.90;5.07;;;;;;;;;;5022011;28;20076;-78
2023/05/23 03:28:28;;;;;;;14.63;6.40;;;;;;;;;;5019432;28;20103;-78
2023/05/23 03:30:54;;;;;;;13.05;5.97;;;;;;;;;;5022651;28;20041;-77
2023/05/23 03:33:20;;;;;;;17.20;6.50;;;;;;;;;;5021565;28;20045;-79
2023/05/23 03:35:46;;;;;;;13.10;5.38;;;;;;;;;;5022854;28;20045;-78
2023/05/23 03:38:12;;;;;;;15.27;5.93;;;;;;;;;;5021176;28;20095;-78
2023/05/23 03:40:38;;;;;;;17.50;6.25;;;;;;;;;;5021962;28;20079;-79
2023/05/23 03:43:05;;;;;;;20.98;6.72;;;;;;;;;;5022853;28;20491;-78
2023/05/23 03:45:32;;;;;;;17.40;6.30;;;;;;;;;;5020244;28;20132;-77
2023/05/23 03:47:58;;;;;;;13.80;6.32;;;;;;;;;;5035930;28;21032;-78
2023/05/23 03:50:25;;;;;;;11.98;6.40;;;;;;;;;;5019852;28;20057;-78
2023/05/23 03:52:51;;;;;;;11.43;6.28;;;;;;;;;;5023521;28;20122;-79
2023/05/23 03:55:21;;;;;;;13.98;6.40;;;;;;;;;;5023038;28;20041;-79
2023/05/23 03:57:47;;;;;;;15.30;7.35;;;;;;;;;;5035644;28;21998;-78
2023/05/23 04:00:14;;;;;;;17.00;6.90;;;;;;;;;;5023981;28;20064;-77
2023/05/23 04:02:40;;;;;;;13.20;7.13;;;;;;;;;;5020961;28;20045;-78
2023/05/23 04:05:06;;;;;;;16.98;6.13;;;;;;;;;;5023011;28;20042;-78
2023/05/23 04:07:35;;;;;;;13.55;6.00;;;;;;;;;;5020579;28;20046;-77
2023/05/23 04:10:02;;;;;;;13.75;6.70;;;;;;;;;;5020156;28;20057;-77
2023/05/23 04:12:31;;;;;;;12.40;5.65;;;;;;;;;;5023071;28;20436;-78
2023/05/23 04:14:58;;;;;;;13.35;6.03;;;;;;;;;;5022424;28;20060;-79
2023/05/23 04:17:24;;;;;;;11.48;6.03;;;;;;;;;;5023599;28;20053;-78
2023/05/23 04:19:50;;;;;;;12.88;5.80;;;;;;;;;;5021207;28;20053;-77
2023/05/23 04:22:17;;;;;;;13.10;6.30;;;;;;;;;;5023335;28;20069;-78
2023/05/23 04:24:43;;;;;;;12.95;6.55;;;;;;;;;;5017562;28;20085;-78
2023/05/23 04:27:09;;;;;;;13.88;5.53;;;;;;;;;;5019658;28;20500;-78
2023/05/23 04:29:35;;;;;;;13.52;5.57;;;;;;;;;;5022366;28;20041;-79
2023/05/23 04:32:05;;;;;;;9.75;5.25;;;;;;;;;;5023901;28;20046;-78
2023/05/23 04:34:32;;;;;;;14.98;5.90;;;;;;;;;;5024573;28;20061;-78
2023/05/23 04:37:01;;;;;;;12.88;5.57;;;;;;;;;;5022430;28;20156;-79
2023/05/23 04:39:27;;;;;;;15.63;6.00;;;;;;;;;;5030504;28;20401;-78
2023/05/23 04:41:53;;;;;;;20.95;6.13;;;;;;;;;;5021588;28;20042;-78
2023/05/23 04:44:19;;;;;;;9.68;5.45;;;;;;;;;;5025836;28;20102;-78
2023/05/23 04:46:45;;;;;;;14.48;5.40;;;;;;;;;;5031007;28;20069;-78
2023/05/23 04:49:11;;;;;;;10.90;4.65;;;;;;;;;;5016721;28;20037;-78
2023/05/23 04:51:38;;;;;;;15.52;5.57;;;;;;;;;;5032978;28;20119;-78
2023/05/23 04:54:04;;;;;;;11.30;4.45;;;;;;;;;;5022225;28;20507;-78
2023/05/23 04:56:30;;;;;;;9.77;4.20;;;;;;;;;;5031142;28;20092;-78
2023/05/23 04:58:57;;;;;;;12.65;3.80;;;;;;;;;;5031826;28;20457;-78
2023/05/23 05:01:23;;;;;;;11.98;4.07;;;;;;;;;;5024591;28;20612;-78
2023/05/23 05:03:50;;;;;;;13.13;4.78;;;;;;;;;;5023621;28;20048;-78
2023/05/23 05:06:17;;;;;;;13.73;4.60;;;;;;;;;;5021077;28;20048;-78
2023/05/23 05:08:43;;;;;;;13.63;4.43;;;;;;;;;;5020224;28;20057;-78
2023/05/23 05:11:09;;;;;;;13.35;4.50;;;;;;;;;;5018873;28;20460;-78
2023/05/23 05:13:35;;;;;;;18.58;4.90;;;;;;;;;;5020531;28;20049;-78
2023/05/23 05:16:01;;;;;;;13.90;4.28;;;;;;;;;;5021741;28;20056;-78
2023/05/23 05:18:28;;;;;;;12.05;3.90;;;;;;;;;;5019095;28;20135;-78
2023/05/23 05:20:54;;;;;;;15.63;4.82;;;;;;;;;;5021454;28;20079;-79
2023/05/23 05:23:22;;;;;;;20.30;4.80;;;;;;;;;;5017899;28;20041;-78
2023/05/23 05:25:49;;;;;;;20.35;4.88;;;;;;;;;;5033935;28;20139;-78
2023/05/23 05:28:15;;;;;;;14.32;4.38;;;;;;;;;;5018985;28;20049;-77
2023/05/23 05:30:41;;;;;;;12.20;4.32;;;;;;;;;;5018825;28;20048;-79
2023/05/23 05:33:07;;;;;;;12.23;4.47;;;;;;;;;;5025125;28;20098;-78
2023/05/23 05:35:34;;;;;;;19.20;4.82;;;;;;;;;;5032821;28;20044;-78
2023/05/23 05:38:03;;;;;;;16.08;5.10;;;;;;;;;;5021100;28;20155;-79
2023/05/23 05:40:29;;;;;;;15.77;4.07;;;;;;;;;;5018189;28;20501;-78
2023/05/23 05:42:55;;;;;;;14.55;4.15;;;;;;;;;;5017745;28;20068;-78
2023/05/23 05:45:21;;;;;;;20.25;4.47;;;;;;;;;;5018052;28;20497;-78
2023/05/23 05:47:47;;;;;;;14.45;4.43;;;;;;;;;;5021167;28;21670;-79
2023/05/23 05:50:14;;;;;;;19.35;4.30;;;;;;;;;;5019265;28;20876;-78
2023/05/23 05:52:41;;;;;;;14.57;4.38;;;;;;;;;;5020222;28;20050;-78
2023/05/23 05:55:07;;;;;;;15.90;4.43;;;;;;;;;;5020377;28;20159;-79
2023/05/23 05:57:34;;;;;;;13.98;4.57;;;;;;;;;;5015436;28;20042;-77
2023/05/23 06:00:00;;;;;;;15.32;4.38;;;;;;;;;;5020396;28;20045;-78
2023/05/23 06:02:26;;;;;;;14.75;4.32;;;;;;;;;;5020875;28;20132;-78
2023/05/23 06:04:52;;;;;;;12.38;4.28;;;;;;;;;;5023174;28;20080;-78
2023/05/23 06:07:18;;;;;;;17.08;4.10;;;;;;;;;;5022174;28;20081;-77
2023/05/23 06:09:44;;;;;;;14.35;4.15;;;;;;;;;;5017000;28;20099;-78
2023/05/23 06:12:10;;;;;;;17.05;4.90;;;;;;;;;;5021161;28;20063;-78
2023/05/23 06:14:36;;;;;;;19.15;4.32;;;;;;;;;;5020360;28;20098;-79
2023/05/23 06:17:02;;;;;;;14.05;4.28;;;;;;;;;;5020975;28;20426;-78
2023/05/23 06:19:28;;;;;;;17.55;5.15;;;;;;;;;;5021643;28;20076;-78
2023/05/23 06:21:54;;;;;;;13.48;4.97;;;;;;;;;;5017219;28;20080;-78
2023/05/23 06:24:20;;;;;;;12.77;3.63;;;;;;;;;;5020839;28;20037;-77
2023/05/23 06:26:46;;;;;;;18.75;4.85;;;;;;;;;;5018098;28;20041;-78
2023/05/23 06:29:13;;;;;;;13.15;4.70;;;;;;;;;;5017596;28;20081;-77
2023/05/23 06:31:38;;;;;;;22.23;5.28;;;;;;;;;;5020737;28;20100;-78
2023/05/23 06:34:04;;;;;;;16.63;4.22;;;;;;;;;;5018798;28;20064;-78
2023/05/23 06:36:31;;;;;;;18.58;5.03;;;;;;;;;;5022117;28;20397;-77
2023/05/23 06:38:57;;;;;;;15.95;4.32;;;;;;;;;;5025676;28;20049;-79
2023/05/23 06:41:23;;;;;;;18.35;4.28;;;;;;;;;;5026126;28;20541;-77
2023/05/23 06:43:49;;;;;;;19.85;4.82;;;;;;;;;;5025553;28;20402;-78
2023/05/23 06:46:15;;;;;;;19.30;5.80;;;;;;;;;;5023702;28;20056;-77
2023/05/23 06:48:41;;;;;;;16.92;4.05;;;;;;;;;;5023269;28;20049;-78
2023/05/23 06:51:07;;;;;;;17.02;4.53;;;;;;;;;;5025521;28;20038;-78
2023/05/23 06:53:33;;;;;;;14.43;4.30;;;;;;;;;;5028621;28;20137;-78
2023/05/23 06:55:59;;;;;;;18.85;4.53;;;;;;;;;;5031391;28;20098;-81
2023/05/23 06:58:25;;;;;;;14.90;4.70;;;;;;;;;;5030772;28;20548;-78
2023/05/23 07:00:51;;;;;;;15.32;4.68;;;;;;;;;;5030011;28;20045;-77
2023/05/23 07:03:17;;;;;;;15.43;4.13;;;;;;;;;;5023843;28;20049;-78
2023/05/23 07:05:43;;;;;;;13.35;4.53;;;;;;;;;;5027969;28;20495;-78
2023/05/23 07:08:10;;;;;;;18.33;4.88;;;;;;;;;;5034205;28;20041;-78
2023/05/23 07:10:37;;;;;;;16.38;4.55;;;;;;;;;;5033832;28;20088;-77
2023/05/23 07:13:03;;;;;;;14.07;4.88;;;;;;;;;;5027552;28;20087;-79
2023/05/23 07:15:29;;;;;;;17.30;4.90;;;;;;;;;;5030474;28;20049;-78
2023/05/23 07:17:55;;;;;;;12.07;4.55;;;;;;;;;;5029412;28;20056;-77
2023/05/23 07:20:22;;;;;;;13.60;4.63;;;;;;;;;;5023080;28;23275;-77
2023/05/23 07:22:49;;;;;;;11.73;4.18;;;;;;;;;;5028021;28;20045;-78
2023/05/23 07:25:15;;;;;;;14.48;4.47;;;;;;;;;;5021587;28;20127;-77
2023/05/23 07:27:41;;;;;;;16.08;5.97;;;;;;;;;;5021184;28;20045;-77
2023/05/23 07:30:08;;;;;;;15.82;4.72;;;;;;;;;;5022591;28;20049;-78
2023/05/23 07:32:35;;;;;;;16.85;5.10;;;;;;;;;;5021488;28;20038;-78
2023/05/23 07:35:01;;;;;;;15.98;4.93;;;;;;;;;;5025215;28;20046;-79
2023/05/23 07:37:27;;;;;;;12.88;4.35;;;;;;;;;;5035500;28;20049;-78
2023/05/23 07:39:53;;;;;;;12.20;4.90;;;;;;;;;;5030248;28;20038;-78
2023/05/23 07:42:19;;;;;;;17.67;4.60;;;;;;;;;;5043457;28;20063;-79
2023/05/23 07:44:45;;;;;;;10.95;3.88;;;;;;;;;;5034620;28;20042;-77
2023/05/23 07:47:11;;;;;;;13.90;4.53;;;;;;;;;;5030917;28;20049;-78
2023/05/23 07:49:37;;;;;;;15.27;4.53;;;;;;;;;;5023987;28;20060;-77
2023/05/23 07:52:04;;;;;;;12.60;4.70;;;;;;;;;;5033301;28;20535;-77
2023/05/23 07:54:29;;;;;;;23.58;5.00;;;;;;;;;;5031665;28;20061;-78
2023/05/23 07:56:56;;;;;;;9.90;4.18;;;;;;;;;;5024945;28;20051;-78
2023/05/23 07:59:22;;;;;;;15.93;4.55;;;;;;;;;;5032808;28;20110;-79
2023/05/23 08:01:49;;;;;;;16.48;4.30;;;;;;;;;;5020826;28;20517;-78
2023/05/23 08:04:15;;;;;;;14.05;4.28;;;;;;;;;;5020421;28;20041;-78
2023/05/23 08:06:41;;;;;;;13.35;4.35;;;;;;;;;;5017908;28;20037;-78
2023/05/23 08:09:08;;;;;;;17.25;4.60;;;;;;;;;;5019683;28;20059;-78
2023/05/23 08:11:34;;;;;;;15.63;4.05;;;;;;;;;;5017501;28;20239;-78
2023/05/23 08:14:01;;;;;;;13.95;4.45;;;;;;;;;;5019081;28;20049;-78
2023/05/23 08:16:27;;;;;;;12.48;4.18;;;;;;;;;;5018809;28;20568;-78
2023/05/23 08:18:53;;;;;;;15.45;4.63;;;;;;;;;;5023628;28;21700;-78
2023/05/23 08:21:19;;;;;;;16.70;4.00;;;;;;;;;;5018666;28;20049;-78
2023/05/23 08:23:45;;;;;;;11.55;4.15;;;;;;;;;;5022194;28;20042;-77
2023/05/23 08:26:11;;;;;;;12.57;4.75;;;;;;;;;;5023096;28;20478;-77
2023/05/23 08:28:37;;;;;;;11.68;3.63;;;;;;;;;;5022077;28;20197;-78
2023/05/23 08:31:03;;;;;;;17.25;4.35;;;;;;;;;;5016324;28;20115;-78
2023/05/23 08:33:29;;;;;;;15.25;4.45;;;;;;;;;;5020438;28;20379;-78
2023/05/23 08:35:55;;;;;;;14.18;4.05;;;;;;;;;;5022322;28;20065;-78
2023/05/23 08:38:21;;;;;;;10.48;3.45;;;;;;;;;;5028349;28;20057;-79
2023/05/23 08:40:51;;;;;;;12.20;3.80;;;;;;;;;;5025507;28;20049;-78
2023/05/23 08:43:18;;;;;;;15.52;4.78;;;;;;;;;;5016840;28;20048;-78
2023/05/23 08:45:44;;;;;;;10.50;3.35;;;;;;;;;;5026098;28;20093;-78
2023/05/23 08:48:12;;;;;;;12.52;3.72;;;;;;;;;;5024412;28;20057;-78
2023/05/23 08:50:39;;;;;;;13.63;4.70;;;;;;;;;;5023292;28;20049;-79
2023/05/23 08:53:09;;;;;;;19.88;4.47;;;;;;;;;;5027315;28;20080;-78
2023/05/23 08:55:37;;;;;;;9.77;3.55;;;;;;;;;;5033433;28;20099;-78
2023/05/23 08:58:03;;;;;;;13.27;4.05;;;;;;;;;;5019989;28;20045;-78
2023/05/23 09:00:29;;;;;;;14.43;3.80;;;;;;;;;;5018499;28;20045;-79
2023/05/23 09:02:56;;;;;;;12.82;3.83;;;;;;;;;;5022992;28;20037;-78
2023/05/23 09:05:22;;;;;;;13.60;3.55;;;;;;;;;;5033621;28;20618;-78
2023/05/23 09:07:53;;;;;;;13.68;4.00;;;;;;;;;;5038086;28;20038;-78
2023/05/23 09:10:19;;;;;;;12.90;4.03;;;;;;;;;;5023685;28;20073;-78
2023/05/23 09:12:46;;;;;;;11.60;4.35;;;;;;;;;;5017884;28;20073;-79
2023/05/23 09:15:12;;;;;;;17.88;3.90;;;;;;;;;;5020561;28;20064;-78
2023/05/23 09:17:39;;;;;;;13.57;3.85;;;;;;;;;;5019307;28;20465;-78
2023/05/23 09:20:13;;;;;;;14.25;4.15;;;;;;;;;;5016365;28;20053;-79
2023/05/23 09:22:39;;;;;;;15.10;4.18;;;;;;;;;;5018890;28;20235;-79
2023/05/23 09:25:05;;;;;;;12.57;4.10;;;;;;;;;;5027455;28;20049;-79
2023/05/23 09:27:31;;;;;;;12.57;3.90;;;;;;;;;;5018137;28;20041;-79
2023/05/23 09:29:57;;;;;;;14.68;3.88;;;;;;;;;;5021412;28;20038;-79
2023/05/23 09:32:23;;;;;;;13.60;4.00;;;;;;;;;;5019380;28;20060;-79
2023/05/23 09:34:56;;;;;;;12.43;4.60;;;;;;;;;;5018727;28;20513;-79
2023/05/23 09:37:24;;;;;;;13.65;4.55;;;;;;;;;;5021500;28;20050;-79
2023/05/23 09:39:50;;;;;;;14.40;3.95;;;;;;;;;;5018320;28;20052;-77
2023/05/23 09:42:21;;;;;;;13.57;4.53;;;;;;;;;;5019824;28;20150;-77
2023/05/23 09:44:47;;;;;;;19.25;4.30;;;;;;;;;;5019135;28;20092;-77
2023/05/23 09:47:13;;;;;;;12.60;4.47;;;;;;;;;;5014730;28;20532;-79
2023/05/23 09:49:40;;;;;;;11.98;3.88;;;;;;;;;;5025732;28;20437;-79
2023/05/23 09:52:06;;;;;;;11.45;3.50;;;;;;;;;;5028615;28;20037;-79
2023/05/23 09:54:32;;;;;;;13.95;4.50;;;;;;;;;;5026062;28;20049;-79
2023/05/23 09:56:59;;;;;;;15.00;3.97;;;;;;;;;;5029139;28;20039;-78
2023/05/23 09:59:27;;;;;;;13.73;3.83;;;;;;;;;;5026564;28;20850;-78
2023/05/23 10:01:56;;;;;;;15.93;4.45;;;;;;;;;;5026705;28;20560;-77
2023/05/23 10:04:22;;;;;;;14.98;4.00;;;;;;;;;;5018640;28;20132;-78
2023/05/23 10:06:52;;;;;;;13.38;4.03;;;;;;;;;;5026409;28;20053;-78
2023/05/23 10:09:19;;;;;;;11.40;4.43;;;;;;;;;;5025846;28;20253;-78
2023/05/23 10:11:51;;;;;;;10.95;3.90;;;;;;;;;;5025802;28;20045;-78
2023/05/23 10:14:17;;;;;;;11.75;4.60;;;;;;;;;;5023029;28;20037;-78
2023/05/23 10:16:58;;;;;;;14.45;3.97;;;;;;;;;;5027671;28;20119;-79
2023/05/23 10:19:27;;;;;;;17.85;5.10;;;;;;;;;;5024778;28;20057;-79
2023/05/23 10:21:58;;;;;;;15.50;4.65;;;;;;;;;;5025289;28;20042;-79
2023/05/23 10:24:25;;;;;;;16.17;4.28;;;;;;;;;;5039535;28;20095;-78
2023/05/23 10:26:53;;;;;;;13.38;4.20;;;;;;;;;;5024223;28;20046;-78
2023/05/23 10:29:20;;;;;;;11.45;3.80;;;;;;;;;;5026553;28;20046;-78
2023/05/23 10:31:46;;;;;;;10.32;3.83;;;;;;;;;;5035599;28;20460;-77
2023/05/23 10:34:12;;;;;;;12.02;4.28;;;;;;;;;;5024916;28;20064;-78
2023/05/23 10:36:56;;;;;;;14.18;3.90;;;;;;;;;;5026582;28;20481;-78
2023/05/23 10:39:31;;;;;;;14.13;4.22;;;;;;;;;;5024494;28;20187;-78
2023/05/23 10:42:02;;;;;;;16.23;4.57;;;;;;;;;;5033526;28;20123;-77
2023/05/23 10:44:29;;;;;;;15.40;4.30;;;;;;;;;;5025530;28;20183;-77
2023/05/23 10:47:02;;;;;;;11.63;4.05;;;;;;;;;;5019799;28;20537;-79
2023/05/23 10:49:44;;;;;;;12.95;3.58;;;;;;;;;;5016813;28;20056;-79
2023/05/23 10:52:15;;;;;;;13.20;4.10;;;;;;;;;;5025636;28;20102;-78
2023/05/23 10:54:45;;;;;;;10.20;3.97;;;;;;;;;;5017894;28;20053;-78
2023/05/23 10:57:15;;;;;;;10.85;4.20;;;;;;;;;;5031605;28;20071;-76
2023/05/23 10:59:41;;;;;;;12.68;4.00;;;;;;;;;;5015166;28;20117;-78
2023/05/23 11:02:12;;;;;;;15.25;4.43;;;;;;;;;;5023444;28;20038;-79
2023/05/23 11:04:38;;;;;;;16.45;3.97;;;;;;;;;;5022401;28;20042;-78
2023/05/23 11:07:04;;;;;;;12.02;4.03;;;;;;;;;;5024258;28;20064;-78
2023/05/23 11:09:30;;;;;;;17.05;3.70;;;;;;;;;;5029987;28;20192;-78
2023/05/23 11:12:04;;;;;;;12.77;3.58;;;;;;;;;;5029297;28;20038;-78
2023/05/23 11:14:33;;;;;;;11.00;3.70;;;;;;;;;;5026710;28;20464;-79
2023/05/23 11:17:00;;;;;;;13.60;3.88;;;;;;;;;;5026839;28;20045;-78
2023/05/23 11:19:27;;;;;;;10.63;3.83;;;;;;;;;;5026596;28;20405;-77
2023/05/23 11:21:59;;;;;;;11.20;4.13;;;;;;;;;;5028339;28;20042;-77
2023/05/23 11:24:45;;;;;;;12.43;4.00;;;;;;;;;;5020325;28;20049;-77
2023/05/23 11:27:11;;;;;;;14.00;4.28;;;;;;;;;;5024378;28;20041;-78
2023/05/23 11:29:37;;;;;;;13.15;3.60;;;;;;;;;;5026222;28;20053;-77
2023/05/23 11:32:13;;;;;;;10.82;4.00;;;;;;;;;;5023128;28;20050;-78
2023/05/23 11:34:40;;;;;;;9.48;3.30;;;;;;;;;;5026189;28;20400;-77
2023/05/23 11:37:06;;;;;;;16.63;4.13;;;;;;;;;;5029690;28;20053;-76
2023/05/23 11:39:32;;;;;;;11.73;3.50;;;;;;;;;;5033676;28;20493;-77
2023/05/23 11:41:59;;;;;;;8.98;3.50;;;;;;;;;;5030300;28;20045;-77
2023/05/23 11:44:25;;;;;;;9.45;3.42;;;;;;;;;;5029042;28;20176;-78
2023/05/23 11:47:05;;;;;;;14.60;3.70;;;;;;;;;;5025970;28;20159;-77
2023/05/23 11:49:31;;;;;;;11.50;3.55;;;;;;;;;;5028108;28;20106;-77
2023/05/23 11:51:59;;;;;;;10.88;2.97;;;;;;;;;;5031533;28;20045;-78
2023/05/23 11:54:26;;;;;;;9.68;3.47;;;;;;;;;;5026545;28;20389;-78
2023/05/23 11:56:52;;;;;;;8.73;3.20;;;;;;;;;;5030990;28;20401;-78
2023/05/23 11:59:18;;;;;;;11.43;3.25;;;;;;;;;;5031747;28;20552;-78
2023/05/23 12:01:44;;;;;;;12.52;3.63;;;;;;;;;;5031916;28;20493;-77
2023/05/23 12:04:11;;;;;;;14.45;3.67;;;;;;;;;;5031219;28;20512;-77
2023/05/23 12:06:39;;;;;;;12.05;3.60;;;;;;;;;;5015240;28;20476;-78
2023/05/23 12:09:06;;;;;;;7.60;3.03;;;;;;;;;;5013661;28;20397;-78
2023/05/23 12:11:32;;;;;;;7.47;2.75;;;;;;;;;;5014124;28;20061;-77
2023/05/23 12:14:05;;;;;;;7.47;3.05;;;;;;;;;;5014437;28;20049;-78
2023/05/23 12:16:31;;;;;;;11.57;3.40;;;;;;;;;;5020843;28;20052;-78
2023/05/23 12:18:57;;;;;;;13.52;3.42;;;;;;;;;;5033490;28;20051;-78
2023/05/23 12:21:39;;;;;;;9.45;3.70;;;;;;;;;;5024848;28;20584;-77
2023/05/23 12:24:12;;;;;;;12.77;3.80;;;;;;;;;;5013175;28;20064;-77
2023/05/23 12:26:49;;;;;;;7.72;3.08;;;;;;;;;;5013315;28;20363;-78
2023/05/23 12:29:15;;;;;;;9.75;3.28;;;;;;;;;;5029099;28;20481;-77
2023/05/23 12:31:41;;;;;;;9.00;3.20;;;;;;;;;;5033733;28;20037;-77
2023/05/23 12:34:11;;;;;;;13.40;3.33;;;;;;;;;;5032312;28;20045;-77
2023/05/23 12:36:37;;;;;;;11.00;2.95;;;;;;;;;;5020063;28;20058;-78
2023/05/23 12:39:04;;;;;;;8.65;3.10;;;;;;;;;;5028948;28;20049;-77
2023/05/23 12:41:32;;;;;;;9.90;3.05;;;;;;;;;;5033810;28;20046;-78
2023/05/23 12:43:58;;;;;;;10.18;3.60;;;;;;;;;;5022798;28;20077;-77
2023/05/23 12:46:25;;;;;;;6.72;2.65;;;;;;;;;;5020638;28;20053;-77
2023/05/23 12:48:51;;;;;;;8.68;3.22;;;;;;;;;;5033537;28;20057;-78
2023/05/23 12:51:17;;;;;;;10.02;3.10;;;;;;;;;;5026168;28;20382;-77
2023/05/23 12:53:44;;;;;;;7.50;3.10;;;;;;;;;;5013912;28;20072;-77
2023/05/23 12:56:10;;;;;;;7.88;2.90;;;;;;;;;;5018771;28;20469;-77
2023/05/23 12:58:36;;;;;;;5.30;3.05;;;;;;;;;;5012890;28;20042;-77
2023/05/23 13:01:02;;;;;;;6.30;2.83;;;;;;;;;;5011743;28;20052;-77
2023/05/23 13:03:32;;;;;;;8.60;3.20;;;;;;;;;;5013508;28;20490;-77
2023/05/23 13:05:58;;;;;;;11.07;3.60;;;;;;;;;;5011704;28;20053;-77
2023/05/23 13:08:25;;;;;;;9.23;3.13;;;;;;;;;;5017054;28;20045;-77
2023/05/23 13:10:52;;;;;;;10.52;3.50;;;;;;;;;;5021852;28;20041;-79
2023/05/23 13:13:18;;;;;;;10.40;3.50;;;;;;;;;;5029077;28;20120;-77
2023/05/23 13:15:44;;;;;;;9.80;3.05;;;;;;;;;;5029127;28;20131;-77
2023/05/23 13:18:11;;;;;;;10.73;3.15;;;;;;;;;;5032368;28;20037;-76
2023/05/23 13:20:37;;;;;;;7.75;3.28;;;;;;;;;;5031120;28;20057;-77
2023/05/23 13:23:03;;;;;;;11.75;3.58;;;;;;;;;;5022470;28;20042;-77
2023/05/23 13:25:29;;;;;;;8.48;3.08;;;;;;;;;;5022133;28;20060;-78
2023/05/23 13:27:56;;;;;;;6.13;3.17;;;;;;;;;;5032879;28;20051;-78
2023/05/23 13:30:22;;;;;;;10.68;3.45;;;;;;;;;;5018097;28;20494;-77
2023/05/23 13:32:49;;;;;;;11.95;3.05;;;;;;;;;;5011916;28;20046;-77
2023/05/23 13:35:15;;;;;;;12.20;3.13;;;;;;;;;;5012738;28;20046;-77
2023/05/23 13:37:41;;;;;;;13.30;3.38;;;;;;;;;;5011810;28;20050;-77
2023/05/23 13:40:08;;;;;;;8.73;3.00;;;;;;;;;;5011989;28;20136;-77
2023/05/23 13:42:34;;;;;;;11.90;3.65;;;;;;;;;;5012080;28;20053;-78
2023/05/23 13:45:00;;;;;;;7.38;2.92;;;;;;;;;;5011105;28;20054;-77
2023/05/23 13:47:26;;;;;;;9.50;3.00;;;;;;;;;;5030000;28;20041;-78
2023/05/23 13:49:52;;;;;;;16.05;3.65;;;;;;;;;;5023929;28;20050;-78
2023/05/23 13:52:19;;;;;;;7.80;3.30;;;;;;;;;;5012056;28;20379;-78
2023/05/23 13:54:45;;;;;;;10.82;3.08;;;;;;;;;;5010877;28;20470;-77
2023/05/23 13:57:11;;;;;;;15.85;3.65;;;;;;;;;;5017309;28;20052;-78
2023/05/23 13:59:37;;;;;;;8.65;3.03;;;;;;;;;;5030726;28;20037;-78
2023/05/23 14:02:04;;;;;;;10.23;3.33;;;;;;;;;;5029912;28;20048;-78
2023/05/23 14:04:30;;;;;;;13.70;3.33;;;;;;;;;;5027589;28;20136;-78
2023/05/23 14:06:56;;;;;;;9.23;3.20;;;;;;;;;;5030771;28;20124;-77
2023/05/23 14:09:22;;;;;;;7.45;2.88;;;;;;;;;;5030536;28;20444;-78
2023/05/23 14:11:50;;;;;;;8.65;3.22;;;;;;;;;;5041195;28;20147;-78
2023/05/23 14:14:16;;;;;;;7.75;3.40;;;;;;;;;;5034647;28;20489;-78
2023/05/23 14:16:42;;;;;;;13.23;3.25;;;;;;;;;;5027886;28;20115;-78
2023/05/23 14:19:08;;;;;;;9.50;2.92;;;;;;;;;;5028249;28;20081;-78
2023/05/23 14:21:35;;;;;;;7.07;3.10;;;;;;;;;;5024901;28;20047;-78
2023/05/23 14:24:01;;;;;;;8.15;3.25;;;;;;;;;;5027270;28;20558;-77
2023/05/23 14:26:27;;;;;;;8.63;3.38;;;;;;;;;;5026801;28;20049;-77
2023/05/23 14:28:53;;;;;;;10.77;2.95;;;;;;;;;;5028581;28;20073;-77
2023/05/23 14:31:20;;;;;;;10.68;3.10;;;;;;;;;;5027261;28;20057;-78